createdAt,value
2016-07-24T00:00:15.900Z,958.25
2016-07-24T00:01:17.632Z,958.22
2016-07-24T00:02:11.474Z,958.20
2016-07-24T00:03:25.318Z,958.25
2016-07-24T00:04:21.807Z,958.24
2016-07-24T00:05:12.797Z,958.22
2016-07-24T00:06:24.547Z,958.23
2016-07-24T00:07:12.177Z,958.23
2016-07-24T00:08:25.368Z,958.21
2016-07-24T00:09:14.282Z,958.15
2016-07-24T00:10:15.264Z,958.18
2016-07-24T00:11:13.543Z,958.19
2016-07-24T00:12:21.880Z,958.18
2016-07-24T00:13:14.974Z,958.16
2016-07-24T00:14:13.445Z,958.16
2016-07-24T00:15:12.603Z,958.15
2016-07-24T00:16:23.674Z,958.14
2016-07-24T00:17:13.774Z,958.17
2016-07-24T00:18:22.992Z,958.18
2016-07-24T00:19:11.903Z,958.17
2016-07-24T00:20:11.669Z,958.17
2016-07-24T00:21:12.857Z,958.21
2016-07-24T00:22:13.061Z,958.19
2016-07-24T00:23:10.898Z,958.20
2016-07-24T00:24:13.153Z,958.23
2016-07-24T00:25:13.880Z,958.21
2016-07-24T00:26:23.464Z,958.23
2016-07-24T00:27:11.094Z,958.21
2016-07-24T00:28:12.951Z,958.22
2016-07-24T00:29:11.250Z,958.20
2016-07-24T00:30:12.392Z,958.26
2016-07-24T00:31:16.690Z,958.25
2016-07-24T00:32:12.682Z,958.24
2016-07-24T00:33:22.037Z,958.24
2016-07-24T00:34:22.130Z,958.21
2016-07-24T00:35:13.774Z,958.20
2016-07-24T00:36:19.034Z,958.22
2016-07-24T00:37:26.214Z,958.16
2016-07-24T00:38:12.687Z,958.15
2016-07-24T00:39:22.437Z,958.14
2016-07-24T00:40:14.033Z,958.14
2016-07-24T00:41:13.323Z,958.13
2016-07-24T00:42:14.993Z,958.09
2016-07-24T00:43:12.910Z,958.10
2016-07-24T00:44:13.154Z,958.10
2016-07-24T00:45:15.158Z,958.11
2016-07-24T00:46:14.296Z,958.10
2016-07-24T00:47:20.781Z,958.10
2016-07-24T00:48:13.184Z,958.11
2016-07-24T00:49:16.398Z,958.05
2016-07-24T00:50:14.595Z,958.07
2016-07-24T00:51:14.668Z,958.04
2016-07-24T00:52:12.282Z,958.03
2016-07-24T00:53:15.986Z,958.00
2016-07-24T00:54:23.754Z,958.03
2016-07-24T00:55:17.605Z,958.03
2016-07-24T00:56:12.991Z,958.02
2016-07-24T00:57:16.485Z,958.00
2016-07-24T00:58:26.461Z,958.02
2016-07-24T00:59:25.067Z,958.06
2016-07-24T01:00:20.325Z,958.05
2016-07-24T01:01:20.611Z,958.04
2016-07-24T01:02:14.750Z,957.99
2016-07-24T01:03:18.830Z,957.99
2016-07-24T01:04:12.658Z,958.04
2016-07-24T01:05:21.704Z,958.02
2016-07-24T01:06:14.675Z,958.00
2016-07-24T01:07:21.654Z,957.98
2016-07-24T01:08:15.146Z,957.94
2016-07-24T01:09:23.755Z,957.99
2016-07-24T01:10:14.771Z,957.98
2016-07-24T01:11:16.629Z,957.99
2016-07-24T01:12:11.695Z,957.98
2016-07-24T01:13:15.106Z,958.03
2016-07-24T01:14:23.204Z,957.97
2016-07-24T01:15:17.020Z,958.00
2016-07-24T01:16:13.990Z,957.99
2016-07-24T01:17:14.422Z,957.99
2016-07-24T01:18:14.616Z,957.98
2016-07-24T01:19:12.961Z,957.97
2016-07-24T01:20:19.093Z,957.97
2016-07-24T01:21:24.105Z,957.97
2016-07-24T01:22:15.630Z,957.96
2016-07-24T01:23:12.394Z,957.96
2016-07-24T01:24:17.545Z,957.97
2016-07-24T01:25:14.042Z,957.94
2016-07-24T01:26:12.201Z,957.94
2016-07-24T01:27:19.269Z,957.91
2016-07-24T01:28:16.459Z,957.90
2016-07-24T01:29:11.861Z,957.93
2016-07-24T01:30:14.652Z,957.90
2016-07-24T01:31:19.268Z,957.87
2016-07-24T01:32:12.921Z,957.91
2016-07-24T01:33:18.122Z,957.91
2016-07-24T01:34:27.577Z,957.90
2016-07-24T01:35:20.820Z,957.90
2016-07-24T01:36:13.600Z,957.88
2016-07-24T01:37:13.096Z,957.90
2016-07-24T01:38:13.882Z,957.90
2016-07-24T01:39:20.932Z,957.87
2016-07-24T01:40:12.478Z,957.87
2016-07-24T01:41:15.355Z,957.89
2016-07-24T01:42:13.809Z,957.86
2016-07-24T01:43:13.896Z,957.86
2016-07-24T01:44:12.172Z,957.90
2016-07-24T01:45:23.948Z,957.87
2016-07-24T01:46:12.969Z,957.87
2016-07-24T01:47:13.515Z,957.89
2016-07-24T01:48:12.931Z,957.89
2016-07-24T01:49:13.454Z,957.88
2016-07-24T01:50:14.050Z,957.89
2016-07-24T01:51:13.243Z,957.94
2016-07-24T01:52:26.562Z,957.90
2016-07-24T01:53:18.312Z,957.94
2016-07-24T01:54:22.889Z,957.94
2016-07-24T01:55:19.260Z,957.94
2016-07-24T01:56:13.387Z,957.91
2016-07-24T01:57:22.760Z,957.89
2016-07-24T01:58:14.709Z,957.93
2016-07-24T01:59:17.497Z,957.93
2016-07-24T02:00:21.812Z,957.91
2016-07-24T02:01:12.953Z,957.91
2016-07-24T02:02:12.240Z,957.94
2016-07-24T02:03:21.290Z,957.97
2016-07-24T02:04:15.280Z,957.91
2016-07-24T02:05:22.955Z,957.93
2016-07-24T02:06:20.416Z,957.92
2016-07-24T02:07:14.309Z,957.91
2016-07-24T02:08:16.814Z,957.96
2016-07-24T02:09:22.285Z,957.91
2016-07-24T02:10:21.264Z,957.91
2016-07-24T02:11:19.634Z,957.88
2016-07-24T02:12:27.602Z,957.90
2016-07-24T02:13:13.507Z,957.87
2016-07-24T02:14:16.847Z,957.87
2016-07-24T02:15:11.349Z,957.84
2016-07-24T02:16:12.550Z,957.87
2016-07-24T02:17:14.255Z,957.86
2016-07-24T02:18:13.629Z,957.86
2016-07-24T02:19:15.521Z,957.86
2016-07-24T02:20:18.469Z,957.89
2016-07-24T02:21:27.618Z,957.88
2016-07-24T02:22:11.463Z,957.86
2016-07-24T02:23:14.683Z,957.89
2016-07-24T02:24:13.227Z,957.86
2016-07-24T02:25:14.103Z,957.90
2016-07-24T02:26:13.335Z,957.90
2016-07-24T02:27:16.166Z,957.91
2016-07-24T02:28:18.168Z,957.89
2016-07-24T02:29:16.172Z,957.92
2016-07-24T02:30:19.878Z,957.90
2016-07-24T02:31:19.225Z,957.96
2016-07-24T02:32:12.823Z,957.94
2016-07-24T02:33:16.671Z,957.96
2016-07-24T02:34:28.939Z,957.92
2016-07-24T02:35:12.634Z,957.93
2016-07-24T02:36:12.160Z,957.88
2016-07-24T02:37:13.484Z,957.92
2016-07-24T02:38:13.153Z,957.93
2016-07-24T02:39:13.093Z,957.88
2016-07-24T02:40:26.618Z,957.88
2016-07-24T02:41:23.397Z,957.88
2016-07-24T02:42:13.205Z,957.87
2016-07-24T02:43:16.665Z,957.91
2016-07-24T02:44:12.853Z,957.90
2016-07-24T02:45:15.948Z,957.89
2016-07-24T02:46:26.125Z,957.93
2016-07-24T02:47:12.935Z,957.88
2016-07-24T02:48:14.706Z,957.90
2016-07-24T02:49:13.854Z,957.90
2016-07-24T02:50:12.362Z,957.89
2016-07-24T02:51:12.677Z,957.88
2016-07-24T02:52:13.433Z,957.89
2016-07-24T02:53:17.075Z,957.92
2016-07-24T02:54:25.914Z,957.97
2016-07-24T02:55:21.254Z,957.96
2016-07-24T02:56:22.616Z,957.93
2016-07-24T02:57:15.696Z,957.96
2016-07-24T02:58:15.677Z,957.95
2016-07-24T02:59:19.784Z,957.93
2016-07-24T03:00:15.487Z,957.97
2016-07-24T03:01:12.760Z,957.98
2016-07-24T03:02:12.144Z,957.97
2016-07-24T03:03:15.579Z,957.92
2016-07-24T03:04:14.417Z,957.88
2016-07-24T03:05:25.917Z,957.90
2016-07-24T03:06:14.200Z,957.90
2016-07-24T03:07:21.499Z,957.89
2016-07-24T03:08:14.218Z,957.90
2016-07-24T03:09:15.372Z,957.88
2016-07-24T03:10:24.644Z,957.91
2016-07-24T03:11:14.239Z,957.87
2016-07-24T03:12:14.552Z,957.93
2016-07-24T03:13:15.584Z,957.91
2016-07-24T03:14:22.371Z,957.86
2016-07-24T03:15:23.094Z,957.87
2016-07-24T03:16:13.968Z,957.90
2016-07-24T03:17:26.186Z,957.86
2016-07-24T03:18:13.458Z,957.87
2016-07-24T03:19:18.495Z,957.88
2016-07-24T03:20:16.559Z,957.87
2016-07-24T03:21:13.390Z,957.84
2016-07-24T03:22:17.345Z,957.86
2016-07-24T03:23:16.447Z,957.87
2016-07-24T03:24:12.695Z,957.86
2016-07-24T03:25:25.857Z,957.87
2016-07-24T03:26:23.974Z,957.86
2016-07-24T03:27:18.973Z,957.86
2016-07-24T03:28:14.057Z,957.84
2016-07-24T03:29:14.511Z,957.82
2016-07-24T03:30:23.902Z,957.81
2016-07-24T03:31:15.676Z,957.85
2016-07-24T03:32:29.253Z,957.85
2016-07-24T03:33:15.978Z,957.84
2016-07-24T03:34:15.576Z,957.85
2016-07-24T03:35:18.329Z,957.85
2016-07-24T03:36:31.407Z,957.87
2016-07-24T03:37:14.243Z,957.85
2016-07-24T03:38:12.491Z,957.86
2016-07-24T03:39:21.443Z,957.88
2016-07-24T03:40:17.869Z,957.88
2016-07-24T03:41:16.296Z,957.86
2016-07-24T03:42:24.192Z,957.89
2016-07-24T03:43:28.597Z,957.88
2016-07-24T03:44:23.082Z,957.89
2016-07-24T03:45:16.435Z,957.90
2016-07-24T03:46:21.606Z,957.88
2016-07-24T03:47:26.404Z,957.86
2016-07-24T03:48:14.792Z,957.86
2016-07-24T03:49:15.561Z,957.92
2016-07-24T03:50:13.011Z,957.93
2016-07-24T03:51:25.723Z,957.87
2016-07-24T03:52:15.972Z,957.86
2016-07-24T03:53:13.555Z,957.93
2016-07-24T03:54:12.105Z,957.87
2016-07-24T03:55:15.072Z,957.92
2016-07-24T03:56:13.570Z,957.91
2016-07-24T03:57:25.372Z,957.96
2016-07-24T03:58:13.720Z,957.95
2016-07-24T03:59:14.512Z,957.93
2016-07-24T04:00:13.117Z,958.00
2016-07-24T04:01:14.589Z,957.95
2016-07-24T04:02:16.697Z,958.01
2016-07-24T04:03:15.180Z,957.98
2016-07-24T04:04:13.706Z,957.98
2016-07-24T04:05:13.638Z,957.97
2016-07-24T04:06:16.921Z,957.98
2016-07-24T04:07:14.096Z,957.97
2016-07-24T04:08:23.258Z,957.98
2016-07-24T04:09:12.623Z,958.00
2016-07-24T04:10:16.106Z,958.04
2016-07-24T04:11:23.054Z,958.05
2016-07-24T04:12:22.728Z,958.06
2016-07-24T04:13:11.629Z,958.07
2016-07-24T04:14:16.406Z,958.08
2016-07-24T04:15:28.465Z,958.09
2016-07-24T04:16:14.759Z,958.06
2016-07-24T04:17:19.023Z,958.04
2016-07-24T04:18:27.337Z,958.08
2016-07-24T04:19:19.103Z,958.07
2016-07-24T04:20:15.726Z,958.06
2016-07-24T04:21:12.997Z,958.02
2016-07-24T04:22:22.835Z,958.05
2016-07-24T04:23:23.511Z,958.08
2016-07-24T04:24:13.900Z,958.11
2016-07-24T04:25:16.736Z,958.12
2016-07-24T04:26:11.937Z,958.12
2016-07-24T04:27:12.696Z,958.13
2016-07-24T04:28:13.103Z,958.15
2016-07-24T04:29:14.607Z,958.16
2016-07-24T04:30:16.324Z,958.16
2016-07-24T04:31:22.814Z,958.18
2016-07-24T04:32:22.421Z,958.15
2016-07-24T04:33:22.007Z,958.18
2016-07-24T04:34:18.944Z,958.19
2016-07-24T04:35:16.886Z,958.18
2016-07-24T04:36:16.298Z,958.18
2016-07-24T04:37:24.408Z,958.18
2016-07-24T04:38:11.411Z,958.20
2016-07-24T04:39:15.703Z,958.21
2016-07-24T04:40:17.043Z,958.22
2016-07-24T04:41:20.329Z,958.23
2016-07-24T04:42:26.390Z,958.24
2016-07-24T04:43:27.007Z,958.22
2016-07-24T04:44:25.877Z,958.21
2016-07-24T04:45:26.712Z,958.22
2016-07-24T04:46:16.062Z,958.23
2016-07-24T04:47:15.476Z,958.22
2016-07-24T04:48:15.843Z,958.24
2016-07-24T04:49:20.762Z,958.28
2016-07-24T04:50:13.142Z,958.29
2016-07-24T04:51:19.832Z,958.30
2016-07-24T04:52:24.632Z,958.28
2016-07-24T04:53:13.916Z,958.26
2016-07-24T04:54:22.625Z,958.28
2016-07-24T04:55:15.268Z,958.28
2016-07-24T04:56:22.076Z,958.26
2016-07-24T04:57:24.541Z,958.25
2016-07-24T04:58:21.462Z,958.29
2016-07-24T04:59:22.815Z,958.24
2016-07-24T05:00:18.462Z,958.25
2016-07-24T05:01:10.309Z,958.24
2016-07-24T05:02:13.412Z,958.25
2016-07-24T05:03:23.879Z,958.22
2016-07-24T05:04:12.694Z,958.23
2016-07-24T05:05:15.069Z,958.23
2016-07-24T05:06:19.704Z,958.22
2016-07-24T05:07:13.889Z,958.19
2016-07-24T05:08:18.010Z,958.21
2016-07-24T05:09:16.119Z,958.23
2016-07-24T05:10:16.650Z,958.23
2016-07-24T05:11:21.878Z,958.23
2016-07-24T05:12:25.976Z,958.24
2016-07-24T05:13:15.224Z,958.20
2016-07-24T05:14:27.667Z,958.23
2016-07-24T05:15:19.233Z,958.25
2016-07-24T05:16:14.024Z,958.24
2016-07-24T05:17:17.521Z,958.24
2016-07-24T05:18:16.195Z,958.26
2016-07-24T05:19:24.667Z,958.31
2016-07-24T05:20:12.894Z,958.28
2016-07-24T05:21:11.520Z,958.31
2016-07-24T05:22:11.826Z,958.31
2016-07-24T05:23:12.255Z,958.31
2016-07-24T05:24:15.625Z,958.25
2016-07-24T05:25:20.752Z,958.30
2016-07-24T05:26:13.178Z,958.28
2016-07-24T05:27:18.518Z,958.28
2016-07-24T05:28:11.073Z,958.28
2016-07-24T05:29:18.552Z,958.29
2016-07-24T05:30:27.753Z,958.27
2016-07-24T05:31:30.204Z,958.29
2016-07-24T05:32:18.746Z,958.31
2016-07-24T05:33:13.404Z,958.31
2016-07-24T05:34:13.161Z,958.32
2016-07-24T05:35:13.044Z,958.36
2016-07-24T05:36:14.618Z,958.35
2016-07-24T05:37:14.341Z,958.33
2016-07-24T05:38:12.330Z,958.34
2016-07-24T05:39:12.798Z,958.33
2016-07-24T05:40:22.809Z,958.35
2016-07-24T05:41:20.258Z,958.34
2016-07-24T05:42:24.975Z,958.34
2016-07-24T05:43:21.949Z,958.34
2016-07-24T05:44:12.273Z,958.36
2016-07-24T05:45:21.241Z,958.36
2016-07-24T05:46:21.053Z,958.35
2016-07-24T05:47:12.739Z,958.35
2016-07-24T05:48:16.412Z,958.38
2016-07-24T05:49:22.311Z,958.36
2016-07-24T05:50:22.727Z,958.34
2016-07-24T05:51:11.630Z,958.38
2016-07-24T05:52:22.303Z,958.40
2016-07-24T05:53:12.947Z,958.38
2016-07-24T05:54:13.831Z,958.36
2016-07-24T05:55:18.311Z,958.29
2016-07-24T05:56:12.743Z,958.30
2016-07-24T05:57:14.129Z,958.28
2016-07-24T05:58:26.704Z,958.31
2016-07-24T05:59:13.801Z,958.28
2016-07-24T06:00:13.539Z,958.29
2016-07-24T06:01:19.159Z,958.26
2016-07-24T06:02:23.178Z,958.23
2016-07-24T06:03:22.338Z,958.29
2016-07-24T06:04:17.561Z,958.24
2016-07-24T06:05:25.204Z,958.25
2016-07-24T06:06:18.085Z,958.24
2016-07-24T06:07:15.104Z,958.27
2016-07-24T06:08:16.714Z,958.26
2016-07-24T06:09:20.338Z,958.28
2016-07-24T06:10:11.933Z,958.27
2016-07-24T06:11:14.966Z,958.34
2016-07-24T06:12:13.653Z,958.34
2016-07-24T06:13:16.365Z,958.31
2016-07-24T06:14:23.940Z,958.34
2016-07-24T06:15:14.580Z,958.33
2016-07-24T06:16:13.352Z,958.33
2016-07-24T06:17:13.556Z,958.32
2016-07-24T06:18:21.928Z,958.30
2016-07-24T06:19:14.163Z,958.31
2016-07-24T06:20:15.434Z,958.29
2016-07-24T06:21:13.076Z,958.31
2016-07-24T06:22:12.091Z,958.31
2016-07-24T06:23:19.264Z,958.33
2016-07-24T06:24:21.188Z,958.32
2016-07-24T06:25:13.845Z,958.34
2016-07-24T06:26:10.828Z,958.32
2016-07-24T06:27:13.223Z,958.35
2016-07-24T06:28:26.031Z,958.38
2016-07-24T06:29:17.205Z,958.32
2016-07-24T06:30:20.614Z,958.34
2016-07-24T06:31:12.385Z,958.34
2016-07-24T06:32:13.213Z,958.34
2016-07-24T06:33:13.180Z,958.31
2016-07-24T06:34:16.864Z,958.32
2016-07-24T06:35:16.299Z,958.35
2016-07-24T06:36:29.415Z,958.34
2016-07-24T06:37:12.942Z,958.34
2016-07-24T06:38:14.745Z,958.31
2016-07-24T06:39:13.454Z,958.34
2016-07-24T06:40:15.156Z,958.33
2016-07-24T06:41:22.863Z,958.33
2016-07-24T06:42:16.227Z,958.33
2016-07-24T06:43:16.310Z,958.34
2016-07-24T06:44:12.969Z,958.35
2016-07-24T06:45:13.273Z,958.34
2016-07-24T06:46:17.149Z,958.33
2016-07-24T06:47:12.463Z,958.30
2016-07-24T06:48:12.961Z,958.34
2016-07-24T06:49:11.254Z,958.33
2016-07-24T06:50:19.388Z,958.32
2016-07-24T06:51:27.676Z,958.34
2016-07-24T06:52:13.779Z,958.34
2016-07-24T06:53:17.405Z,958.29
2016-07-24T06:54:21.921Z,958.33
2016-07-24T06:55:24.999Z,958.32
2016-07-24T06:56:22.836Z,958.32
2016-07-24T06:57:14.975Z,958.37
2016-07-24T06:58:13.044Z,958.30
2016-07-24T06:59:22.250Z,958.31
2016-07-24T07:00:12.066Z,958.35
2016-07-24T07:01:13.396Z,958.34
2016-07-24T07:02:17.121Z,958.35
2016-07-24T07:03:23.211Z,958.31
2016-07-24T07:04:35.205Z,958.35
2016-07-24T07:05:17.270Z,958.34
2016-07-24T07:06:14.712Z,958.35
2016-07-24T07:07:12.835Z,958.37
2016-07-24T07:08:26.138Z,958.36
2016-07-24T07:09:12.917Z,958.38
2016-07-24T07:10:21.230Z,958.39
2016-07-24T07:11:14.329Z,958.38
2016-07-24T07:12:18.880Z,958.39
2016-07-24T07:13:23.792Z,958.42
2016-07-24T07:14:11.506Z,958.40
2016-07-24T07:15:22.975Z,958.45
2016-07-24T07:16:19.183Z,958.38
2016-07-24T07:17:31.203Z,958.45
2016-07-24T07:18:12.508Z,958.43
2016-07-24T07:19:19.442Z,958.44
2016-07-24T07:20:16.330Z,958.47
2016-07-24T07:21:13.176Z,958.46
2016-07-24T07:22:14.094Z,958.45
2016-07-24T07:23:15.771Z,958.44
2016-07-24T07:24:14.308Z,958.45
2016-07-24T07:25:16.926Z,958.47
2016-07-24T07:26:13.404Z,958.48
2016-07-24T07:27:16.725Z,958.47
2016-07-24T07:28:27.003Z,958.47
2016-07-24T07:29:21.162Z,958.42
2016-07-24T07:30:19.963Z,958.47
2016-07-24T07:31:13.161Z,958.47
2016-07-24T07:32:17.154Z,958.46
2016-07-24T07:33:17.190Z,958.44
2016-07-24T07:34:21.558Z,958.45
2016-07-24T07:35:14.108Z,958.46
2016-07-24T07:36:21.438Z,958.45
2016-07-24T07:37:22.930Z,958.43
2016-07-24T07:38:17.842Z,958.47
2016-07-24T07:39:26.884Z,958.50
2016-07-24T07:40:20.183Z,958.57
2016-07-24T07:41:13.635Z,958.54
2016-07-24T07:42:21.360Z,958.54
2016-07-24T07:43:27.730Z,958.58
2016-07-24T07:44:14.503Z,958.52
2016-07-24T07:45:16.755Z,958.55
2016-07-24T07:46:15.559Z,958.49
2016-07-24T07:47:20.271Z,958.53
2016-07-24T07:48:19.040Z,958.52
2016-07-24T07:49:13.585Z,958.49
2016-07-24T07:50:12.833Z,958.50
2016-07-24T07:51:13.793Z,958.52
2016-07-24T07:52:13.046Z,958.50
2016-07-24T07:53:15.040Z,958.51
2016-07-24T07:54:13.716Z,958.51
2016-07-24T07:55:28.904Z,958.53
2016-07-24T07:56:20.431Z,958.53
2016-07-24T07:57:16.535Z,958.53
2016-07-24T07:58:12.708Z,958.52
2016-07-24T07:59:23.758Z,958.54
2016-07-24T08:00:19.065Z,958.56
2016-07-24T08:01:13.926Z,958.57
2016-07-24T08:02:16.892Z,958.58
2016-07-24T08:03:21.495Z,958.59
2016-07-24T08:04:12.782Z,958.63
2016-07-24T08:05:16.451Z,958.63
2016-07-24T08:06:12.407Z,958.58
2016-07-24T08:07:15.470Z,958.59
2016-07-24T08:08:19.907Z,958.57
2016-07-24T08:09:16.432Z,958.53
2016-07-24T08:10:13.162Z,958.60
2016-07-24T08:11:19.215Z,958.60
2016-07-24T08:12:13.014Z,958.57
2016-07-24T08:13:19.233Z,958.56
2016-07-24T08:14:13.806Z,958.57
2016-07-24T08:15:13.814Z,958.59
2016-07-24T08:16:13.605Z,958.59
2016-07-24T08:17:14.510Z,958.56
2016-07-24T08:18:12.401Z,958.58
2016-07-24T08:19:25.416Z,958.58
2016-07-24T08:20:12.651Z,958.58
2016-07-24T08:21:26.116Z,958.59
2016-07-24T08:22:19.943Z,958.56
2016-07-24T08:23:22.679Z,958.59
2016-07-24T08:24:13.875Z,958.55
2016-07-24T08:25:13.112Z,958.55
2016-07-24T08:26:15.787Z,958.54
2016-07-24T08:27:13.718Z,958.56
2016-07-24T08:28:11.986Z,958.54
2016-07-24T08:29:14.439Z,958.54
2016-07-24T08:30:14.121Z,958.56
2016-07-24T08:31:20.604Z,958.52
2016-07-24T08:32:18.498Z,958.54
2016-07-24T08:33:14.739Z,958.61
2016-07-24T08:34:12.918Z,958.55
2016-07-24T08:35:25.820Z,958.56
2016-07-24T08:36:14.319Z,958.54
2016-07-24T08:37:13.988Z,958.56
2016-07-24T08:38:23.172Z,958.48
2016-07-24T08:39:12.030Z,958.49
2016-07-24T08:40:12.817Z,958.52
2016-07-24T08:41:16.273Z,958.48
2016-07-24T08:42:14.470Z,958.48
2016-07-24T08:43:26.821Z,958.50
2016-07-24T08:44:27.132Z,958.38
2016-07-24T08:45:12.722Z,958.45
2016-07-24T08:46:14.969Z,958.46
2016-07-24T08:47:23.515Z,958.44
2016-07-24T08:48:18.031Z,958.40
2016-07-24T08:49:14.986Z,958.49
2016-07-24T08:50:18.781Z,958.44
2016-07-24T08:51:13.157Z,958.43
2016-07-24T08:52:18.474Z,958.42
2016-07-24T08:53:12.991Z,958.41
2016-07-24T08:54:16.967Z,958.35
2016-07-24T08:55:20.779Z,958.34
2016-07-24T08:56:15.140Z,958.35
2016-07-24T08:57:18.119Z,958.33
2016-07-24T08:58:25.241Z,958.31
2016-07-24T08:59:14.915Z,958.31
2016-07-24T09:00:17.055Z,958.27
2016-07-24T09:01:16.193Z,958.31
2016-07-24T09:02:13.639Z,958.34
2016-07-24T09:03:16.281Z,958.33
2016-07-24T09:04:21.438Z,958.30
2016-07-24T09:05:16.639Z,958.34
2016-07-24T09:06:17.291Z,958.29
2016-07-24T09:07:21.237Z,958.33
2016-07-24T09:08:21.242Z,958.34
2016-07-24T09:09:19.433Z,958.34
2016-07-24T09:10:14.003Z,958.37
2016-07-24T09:11:15.305Z,958.40
2016-07-24T09:12:15.534Z,958.36
2016-07-24T09:13:14.680Z,958.32
2016-07-24T09:14:15.701Z,958.35
2016-07-24T09:15:12.574Z,958.28
2016-07-24T09:16:22.268Z,958.34
2016-07-24T09:17:13.919Z,958.28
2016-07-24T09:18:20.423Z,958.31
2016-07-24T09:19:17.084Z,958.29
2016-07-24T09:20:11.736Z,958.26
2016-07-24T09:21:19.956Z,958.30
2016-07-24T09:22:14.037Z,958.27
2016-07-24T09:23:12.671Z,958.27
2016-07-24T09:24:15.186Z,958.29
2016-07-24T09:25:18.083Z,958.25
2016-07-24T09:26:12.487Z,958.23
2016-07-24T09:27:26.891Z,958.21
2016-07-24T09:28:23.902Z,958.20
2016-07-24T09:29:16.216Z,958.21
2016-07-24T09:30:11.791Z,958.23
2016-07-24T09:31:11.634Z,958.26
2016-07-24T09:32:13.098Z,958.24
2016-07-24T09:33:16.029Z,958.23
2016-07-24T09:34:18.390Z,958.25
2016-07-24T09:35:16.587Z,958.24
2016-07-24T09:36:20.192Z,958.25
2016-07-24T09:37:14.437Z,958.21
2016-07-24T09:38:18.080Z,958.21
2016-07-24T09:39:13.876Z,958.18
2016-07-24T09:40:14.626Z,958.21
2016-07-24T09:41:14.792Z,958.23
2016-07-24T09:42:14.431Z,958.21
2016-07-24T09:43:13.688Z,958.19
2016-07-24T09:44:15.920Z,958.21
2016-07-24T09:45:12.217Z,958.21
2016-07-24T09:46:11.752Z,958.23
2016-07-24T09:47:13.305Z,958.19
2016-07-24T09:48:11.696Z,958.15
2016-07-24T09:49:21.411Z,958.20
2016-07-24T09:50:16.253Z,958.17
2016-07-24T09:51:27.482Z,958.17
2016-07-24T09:52:14.757Z,958.12
2016-07-24T09:53:13.550Z,958.15
2016-07-24T09:54:16.651Z,958.15
2016-07-24T09:55:14.944Z,958.13
2016-07-24T09:56:21.597Z,958.13
2016-07-24T09:57:15.179Z,958.13
2016-07-24T09:58:14.208Z,958.10
2016-07-24T09:59:16.103Z,958.15
2016-07-24T10:00:13.152Z,958.12
2016-07-24T10:01:12.538Z,958.10
2016-07-24T10:02:19.993Z,958.12
2016-07-24T10:03:18.138Z,958.15
2016-07-24T10:04:17.481Z,958.12
2016-07-24T10:05:14.666Z,958.07
2016-07-24T10:06:14.087Z,958.10
2016-07-24T10:07:13.760Z,958.07
2016-07-24T10:08:15.486Z,958.10
2016-07-24T10:09:21.337Z,958.11
2016-07-24T10:10:17.849Z,958.08
2016-07-24T10:11:12.393Z,958.08
2016-07-24T10:12:13.421Z,958.09
2016-07-24T10:13:20.534Z,958.11
2016-07-24T10:14:15.905Z,958.12
2016-07-24T10:15:20.431Z,958.12
2016-07-24T10:16:19.837Z,958.09
2016-07-24T10:17:21.842Z,958.07
2016-07-24T10:18:13.485Z,958.10
2016-07-24T10:19:17.593Z,958.11
2016-07-24T10:20:14.440Z,958.11
2016-07-24T10:21:15.027Z,958.08
2016-07-24T10:22:21.691Z,958.05
2016-07-24T10:23:17.252Z,958.04
2016-07-24T10:24:12.416Z,958.01
2016-07-24T10:25:25.522Z,958.02
2016-07-24T10:26:10.889Z,958.00
2016-07-24T10:27:14.214Z,958.03
2016-07-24T10:28:26.351Z,958.04
2016-07-24T10:29:26.194Z,958.02
2016-07-24T10:30:14.514Z,958.02
2016-07-24T10:31:15.224Z,958.01
2016-07-24T10:32:14.076Z,957.98
2016-07-24T10:33:16.673Z,958.01
2016-07-24T10:34:12.430Z,957.98
2016-07-24T10:35:13.318Z,957.96
2016-07-24T10:36:17.006Z,957.98
2016-07-24T10:37:13.171Z,957.99
2016-07-24T10:38:22.940Z,957.99
2016-07-24T10:39:12.743Z,957.99
2016-07-24T10:40:16.985Z,957.97
2016-07-24T10:41:14.728Z,957.95
2016-07-24T10:42:12.794Z,957.92
2016-07-24T10:43:12.771Z,957.92
2016-07-24T10:44:13.055Z,957.92
2016-07-24T10:45:17.682Z,957.93
2016-07-24T10:46:10.906Z,957.91
2016-07-24T10:47:16.292Z,957.89
2016-07-24T10:48:14.566Z,957.92
2016-07-24T10:49:16.212Z,957.92
2016-07-24T10:50:16.521Z,957.90
2016-07-24T10:51:22.953Z,957.88
2016-07-24T10:52:12.912Z,957.84
2016-07-24T10:53:11.749Z,957.88
2016-07-24T10:54:17.326Z,957.92
2016-07-24T10:55:14.940Z,957.95
2016-07-24T10:56:19.020Z,957.92
2016-07-24T10:57:12.706Z,957.96
2016-07-24T10:58:16.868Z,957.94
2016-07-24T10:59:21.961Z,957.95
2016-07-24T11:00:20.763Z,957.92
2016-07-24T11:01:18.387Z,957.92
2016-07-24T11:02:14.697Z,957.93
2016-07-24T11:03:26.358Z,957.93
2016-07-24T11:04:11.971Z,957.94
2016-07-24T11:05:14.350Z,957.94
2016-07-24T11:06:22.608Z,957.92
2016-07-24T11:07:26.706Z,957.97
2016-07-24T11:08:13.245Z,957.95
2016-07-24T11:09:14.783Z,957.96
2016-07-24T11:10:15.755Z,957.93
2016-07-24T11:11:13.295Z,958.00
2016-07-24T11:12:13.991Z,958.00
2016-07-24T11:13:11.622Z,957.98
2016-07-24T11:14:14.626Z,958.03
2016-07-24T11:15:15.599Z,957.96
2016-07-24T11:16:13.161Z,957.97
2016-07-24T11:17:12.505Z,957.96
2016-07-24T11:18:14.444Z,957.95
2016-07-24T11:19:14.757Z,957.95
2016-07-24T11:20:18.558Z,957.96
2016-07-24T11:21:13.802Z,957.97
2016-07-24T11:22:24.101Z,957.94
2016-07-24T11:23:15.009Z,957.90
2016-07-24T11:24:15.411Z,957.94
2016-07-24T11:25:14.745Z,957.88
2016-07-24T11:26:13.713Z,957.91
2016-07-24T11:27:15.434Z,957.90
2016-07-24T11:28:13.005Z,957.89
2016-07-24T11:29:16.946Z,957.93
2016-07-24T11:30:20.926Z,957.89
2016-07-24T11:31:15.632Z,957.88
2016-07-24T11:32:19.908Z,957.90
2016-07-24T11:33:15.424Z,957.91
2016-07-24T11:34:23.695Z,957.88
2016-07-24T11:35:17.108Z,957.86
2016-07-24T11:36:11.168Z,957.90
2016-07-24T11:37:18.064Z,957.88
2016-07-24T11:38:14.080Z,957.86
2016-07-24T11:39:17.053Z,957.86
2016-07-24T11:40:20.612Z,957.90
2016-07-24T11:41:12.825Z,957.86
2016-07-24T11:42:16.556Z,957.87
2016-07-24T11:43:13.437Z,957.84
2016-07-24T11:44:15.273Z,957.83
2016-07-24T11:45:15.644Z,957.83
2016-07-24T11:46:13.344Z,957.81
2016-07-24T11:47:12.608Z,957.78
2016-07-24T11:48:24.095Z,957.79
2016-07-24T11:49:13.577Z,957.78
2016-07-24T11:50:12.756Z,957.78
2016-07-24T11:51:13.917Z,957.77
2016-07-24T11:52:15.488Z,957.78
2016-07-24T11:53:14.394Z,957.76
2016-07-24T11:54:13.230Z,957.76
2016-07-24T11:55:13.171Z,957.75
2016-07-24T11:56:13.899Z,957.72
2016-07-24T11:57:13.604Z,957.73
2016-07-24T11:58:14.655Z,957.67
2016-07-24T11:59:13.194Z,957.75
2016-07-24T12:00:12.226Z,957.72
2016-07-24T12:01:13.711Z,957.73
2016-07-24T12:02:10.752Z,957.74
2016-07-24T12:03:13.781Z,957.72
2016-07-24T12:04:12.138Z,957.76
2016-07-24T12:05:14.262Z,957.72
2016-07-24T12:06:12.500Z,957.71
2016-07-24T12:07:13.964Z,957.72
2016-07-24T12:08:11.286Z,957.68
2016-07-24T12:09:16.162Z,957.67
2016-07-24T12:10:21.104Z,957.69
2016-07-24T12:11:12.783Z,957.69
2016-07-24T12:12:20.679Z,957.67
2016-07-24T12:13:20.821Z,957.67
2016-07-24T12:14:15.335Z,957.64
2016-07-24T12:15:12.694Z,957.62
2016-07-24T12:16:12.786Z,957.60
2016-07-24T12:17:12.754Z,957.63
2016-07-24T12:18:11.760Z,957.64
2016-07-24T12:19:11.699Z,957.59
2016-07-24T12:20:10.644Z,957.60
2016-07-24T12:21:12.499Z,957.63
2016-07-24T12:22:23.311Z,957.61
2016-07-24T12:23:16.999Z,957.63
2016-07-24T12:24:20.916Z,957.64
2016-07-24T12:25:15.455Z,957.63
2016-07-24T12:26:13.204Z,957.64
2016-07-24T12:27:12.188Z,957.62
2016-07-24T12:28:15.558Z,957.60